sensor_id;sensor_type;location;lat;lon;timestamp;P1;durP1;ratioP1;P2;durP2;ratioP2
65328;SDS011;51941;52.210;5.158;2024-02-28T00:01:39;13.32;;;5.47;;
65328;SDS011;51941;52.210;5.158;2024-02-28T00:04:14;13.00;;;5.53;;
65328;SDS011;51941;52.210;5.158;2024-02-28T00:06:41;17.63;;;7.25;;
65328;SDS011;51941;52.210;5.158;2024-02-28T00:09:07;13.05;;;5.22;;
65328;SDS011;51941;52.210;5.158;2024-02-28T00:11:34;14.30;;;5.75;;
65328;SDS011;51941;52.210;5.158;2024-02-28T00:14:01;12.65;;;5.38;;
65328;SDS011;51941;52.210;5.158;2024-02-28T00:16:28;12.20;;;5.75;;
65328;SDS011;51941;52.210;5.158;2024-02-28T00:18:56;18.30;;;6.22;;
65328;SDS011;51941;52.210;5.158;2024-02-28T00:21:23;14.30;;;5.03;;
65328;SDS011;51941;52.210;5.158;2024-02-28T00:23:49;12.60;;;5.20;;
65328;SDS011;51941;52.210;5.158;2024-02-28T00:26:16;15.35;;;5.50;;
65328;SDS011;51941;52.210;5.158;2024-02-28T00:28:43;12.02;;;4.93;;
65328;SDS011;51941;52.210;5.158;2024-02-28T00:31:09;15.20;;;6.88;;
65328;SDS011;51941;52.210;5.158;2024-02-28T00:33:36;14.93;;;5.95;;
65328;SDS011;51941;52.210;5.158;2024-02-28T00:36:04;14.18;;;5.55;;
65328;SDS011;51941;52.210;5.158;2024-02-28T00:38:31;16.25;;;6.20;;
65328;SDS011;51941;52.210;5.158;2024-02-28T00:40:58;16.35;;;5.38;;
65328;SDS011;51941;52.210;5.158;2024-02-28T00:43:24;16.65;;;5.80;;
65328;SDS011;51941;52.210;5.158;2024-02-28T00:45:51;13.80;;;5.45;;
65328;SDS011;51941;52.210;5.158;2024-02-28T00:48:18;13.10;;;5.47;;
65328;SDS011;51941;52.210;5.158;2024-02-28T00:50:44;12.80;;;5.70;;
65328;SDS011;51941;52.210;5.158;2024-02-28T00:53:13;18.23;;;6.65;;
65328;SDS011;51941;52.210;5.158;2024-02-28T00:55:39;13.90;;;6.00;;
65328;SDS011;51941;52.210;5.158;2024-02-28T00:58:06;15.27;;;5.50;;
65328;SDS011;51941;52.210;5.158;2024-02-28T01:00:33;18.55;;;7.30;;
65328;SDS011;51941;52.210;5.158;2024-02-28T01:03:00;19.08;;;7.38;;
65328;SDS011;51941;52.210;5.158;2024-02-28T01:05:28;20.42;;;6.70;;
65328;SDS011;51941;52.210;5.158;2024-02-28T01:07:55;13.38;;;5.70;;
65328;SDS011;51941;52.210;5.158;2024-02-28T01:10:23;23.67;;;7.88;;
65328;SDS011;51941;52.210;5.158;2024-02-28T01:12:50;19.00;;;6.93;;
65328;SDS011;51941;52.210;5.158;2024-02-28T01:15:17;18.27;;;6.60;;
65328;SDS011;51941;52.210;5.158;2024-02-28T01:17:43;18.70;;;7.75;;
65328;SDS011;51941;52.210;5.158;2024-02-28T01:20:10;15.00;;;5.72;;
65328;SDS011;51941;52.210;5.158;2024-02-28T01:22:37;13.73;;;6.20;;
65328;SDS011;51941;52.210;5.158;2024-02-28T01:25:04;21.85;;;7.43;;
65328;SDS011;51941;52.210;5.158;2024-02-28T01:27:33;15.77;;;7.15;;
65328;SDS011;51941;52.210;5.158;2024-02-28T01:30:00;14.10;;;6.15;;
65328;SDS011;51941;52.210;5.158;2024-02-28T01:32:27;17.98;;;6.82;;
65328;SDS011;51941;52.210;5.158;2024-02-28T01:34:54;15.63;;;6.72;;
65328;SDS011;51941;52.210;5.158;2024-02-28T01:37:21;16.20;;;6.65;;
65328;SDS011;51941;52.210;5.158;2024-02-28T01:39:48;16.95;;;6.43;;
65328;SDS011;51941;52.210;5.158;2024-02-28T01:42:14;18.88;;;6.75;;
65328;SDS011;51941;52.210;5.158;2024-02-28T01:44:44;21.70;;;7.05;;
65328;SDS011;51941;52.210;5.158;2024-02-28T01:47:13;18.88;;;6.93;;
65328;SDS011;51941;52.210;5.158;2024-02-28T01:49:41;15.77;;;7.90;;
65328;SDS011;51941;52.210;5.158;2024-02-28T01:52:08;17.83;;;7.07;;
65328;SDS011;51941;52.210;5.158;2024-02-28T01:54:36;17.85;;;5.75;;
65328;SDS011;51941;52.210;5.158;2024-02-28T01:57:03;16.33;;;5.70;;
65328;SDS011;51941;52.210;5.158;2024-02-28T01:59:30;18.00;;;7.47;;
65328;SDS011;51941;52.210;5.158;2024-02-28T02:01:59;18.52;;;7.03;;
65328;SDS011;51941;52.210;5.158;2024-02-28T02:04:25;15.82;;;5.93;;
65328;SDS011;51941;52.210;5.158;2024-02-28T02:06:52;16.83;;;6.25;;
65328;SDS011;51941;52.210;5.158;2024-02-28T02:09:20;17.20;;;6.97;;
65328;SDS011;51941;52.210;5.158;2024-02-28T02:11:46;18.83;;;6.78;;
65328;SDS011;51941;52.210;5.158;2024-02-28T02:14:18;17.83;;;6.95;;
65328;SDS011;51941;52.210;5.158;2024-02-28T02:16:47;16.83;;;6.53;;
65328;SDS011;51941;52.210;5.158;2024-02-28T02:19:15;17.55;;;6.07;;
65328;SDS011;51941;52.210;5.158;2024-02-28T02:21:43;21.02;;;5.20;;
65328;SDS011;51941;52.210;5.158;2024-02-28T02:24:17;12.80;;;5.05;;
65328;SDS011;51941;52.210;5.158;2024-02-28T02:26:44;12.07;;;5.53;;
65328;SDS011;51941;52.210;5.158;2024-02-28T02:29:11;12.68;;;5.10;;
65328;SDS011;51941;52.210;5.158;2024-02-28T02:31:38;14.90;;;5.90;;
65328;SDS011;51941;52.210;5.158;2024-02-28T02:34:05;12.32;;;5.20;;
65328;SDS011;51941;52.210;5.158;2024-02-28T02:36:32;16.42;;;5.55;;
65328;SDS011;51941;52.210;5.158;2024-02-28T02:38:59;14.02;;;5.75;;
65328;SDS011;51941;52.210;5.158;2024-02-28T02:41:27;12.00;;;4.95;;
65328;SDS011;51941;52.210;5.158;2024-02-28T02:43:53;10.23;;;4.28;;
65328;SDS011;51941;52.210;5.158;2024-02-28T02:46:20;10.60;;;5.20;;
65328;SDS011;51941;52.210;5.158;2024-02-28T02:48:47;12.38;;;5.13;;
65328;SDS011;51941;52.210;5.158;2024-02-28T02:51:13;14.35;;;4.32;;
65328;SDS011;51941;52.210;5.158;2024-02-28T02:53:42;13.43;;;5.47;;
65328;SDS011;51941;52.210;5.158;2024-02-28T02:56:08;11.48;;;4.70;;
65328;SDS011;51941;52.210;5.158;2024-02-28T02:58:36;8.57;;;4.10;;
65328;SDS011;51941;52.210;5.158;2024-02-28T03:01:03;15.40;;;3.47;;
65328;SDS011;51941;52.210;5.158;2024-02-28T03:03:29;7.97;;;3.40;;
65328;SDS011;51941;52.210;5.158;2024-02-28T03:05:57;11.20;;;4.30;;
65328;SDS011;51941;52.210;5.158;2024-02-28T03:08:23;8.55;;;3.25;;
65328;SDS011;51941;52.210;5.158;2024-02-28T03:10:50;9.30;;;4.28;;
65328;SDS011;51941;52.210;5.158;2024-02-28T03:13:17;7.22;;;2.78;;
65328;SDS011;51941;52.210;5.158;2024-02-28T03:15:45;9.93;;;3.40;;
65328;SDS011;51941;52.210;5.158;2024-02-28T03:18:11;14.68;;;4.18;;
65328;SDS011;51941;52.210;5.158;2024-02-28T03:20:38;10.13;;;4.55;;
65328;SDS011;51941;52.210;5.158;2024-02-28T03:23:05;9.68;;;3.85;;
65328;SDS011;51941;52.210;5.158;2024-02-28T03:25:32;10.75;;;3.75;;
65328;SDS011;51941;52.210;5.158;2024-02-28T03:28:01;9.73;;;4.20;;
65328;SDS011;51941;52.210;5.158;2024-02-28T03:30:27;8.30;;;3.67;;
65328;SDS011;51941;52.210;5.158;2024-02-28T03:32:55;10.15;;;4.82;;
65328;SDS011;51941;52.210;5.158;2024-02-28T03:35:22;9.75;;;3.42;;
65328;SDS011;51941;52.210;5.158;2024-02-28T03:37:48;8.70;;;3.90;;
65328;SDS011;51941;52.210;5.158;2024-02-28T03:40:15;10.25;;;4.18;;
65328;SDS011;51941;52.210;5.158;2024-02-28T03:42:42;10.50;;;4.20;;
65328;SDS011;51941;52.210;5.158;2024-02-28T03:45:09;10.90;;;4.35;;
65328;SDS011;51941;52.210;5.158;2024-02-28T03:47:35;10.60;;;3.03;;
65328;SDS011;51941;52.210;5.158;2024-02-28T03:50:04;11.82;;;4.68;;
65328;SDS011;51941;52.210;5.158;2024-02-28T03:52:31;10.65;;;4.43;;
65328;SDS011;51941;52.210;5.158;2024-02-28T03:54:58;10.82;;;5.55;;
65328;SDS011;51941;52.210;5.158;2024-02-28T03:57:25;11.55;;;4.72;;
65328;SDS011;51941;52.210;5.158;2024-02-28T03:59:51;9.70;;;4.18;;
65328;SDS011;51941;52.210;5.158;2024-02-28T04:02:18;7.50;;;3.55;;
65328;SDS011;51941;52.210;5.158;2024-02-28T04:04:45;11.80;;;4.05;;
65328;SDS011;51941;52.210;5.158;2024-02-28T04:07:13;9.57;;;4.28;;
65328;SDS011;51941;52.210;5.158;2024-02-28T04:09:40;12.48;;;4.57;;
65328;SDS011;51941;52.210;5.158;2024-02-28T04:12:07;15.50;;;5.45;;
65328;SDS011;51941;52.210;5.158;2024-02-28T04:14:36;11.15;;;4.45;;
65328;SDS011;51941;52.210;5.158;2024-02-28T04:17:03;11.57;;;4.85;;
65328;SDS011;51941;52.210;5.158;2024-02-28T04:19:32;15.48;;;4.60;;
65328;SDS011;51941;52.210;5.158;2024-02-28T04:21:59;11.23;;;4.55;;
65328;SDS011;51941;52.210;5.158;2024-02-28T04:24:27;16.67;;;4.60;;
65328;SDS011;51941;52.210;5.158;2024-02-28T04:26:53;16.88;;;5.50;;
65328;SDS011;51941;52.210;5.158;2024-02-28T04:29:20;17.02;;;5.53;;
65328;SDS011;51941;52.210;5.158;2024-02-28T04:31:47;10.70;;;4.30;;
65328;SDS011;51941;52.210;5.158;2024-02-28T04:34:13;18.10;;;5.63;;
65328;SDS011;51941;52.210;5.158;2024-02-28T04:36:40;12.15;;;5.22;;
65328;SDS011;51941;52.210;5.158;2024-02-28T04:39:07;10.30;;;3.92;;
65328;SDS011;51941;52.210;5.158;2024-02-28T04:41:35;14.98;;;4.88;;
65328;SDS011;51941;52.210;5.158;2024-02-28T04:44:02;15.95;;;4.97;;
65328;SDS011;51941;52.210;5.158;2024-02-28T04:46:29;13.90;;;5.57;;
65328;SDS011;51941;52.210;5.158;2024-02-28T04:48:55;12.82;;;5.43;;
65328;SDS011;51941;52.210;5.158;2024-02-28T04:51:22;12.57;;;4.25;;
65328;SDS011;51941;52.210;5.158;2024-02-28T04:53:49;10.32;;;4.68;;
65328;SDS011;51941;52.210;5.158;2024-02-28T04:56:15;15.50;;;4.85;;
65328;SDS011;51941;52.210;5.158;2024-02-28T04:58:43;16.20;;;5.40;;
65328;SDS011;51941;52.210;5.158;2024-02-28T05:01:10;14.18;;;5.28;;
65328;SDS011;51941;52.210;5.158;2024-02-28T05:03:38;12.27;;;4.28;;
65328;SDS011;51941;52.210;5.158;2024-02-28T05:06:04;14.82;;;4.97;;
65328;SDS011;51941;52.210;5.158;2024-02-28T05:08:31;10.00;;;5.05;;
65328;SDS011;51941;52.210;5.158;2024-02-28T05:10:58;13.23;;;4.47;;
65328;SDS011;51941;52.210;5.158;2024-02-28T05:13:24;14.15;;;5.13;;
65328;SDS011;51941;52.210;5.158;2024-02-28T05:15:52;11.02;;;5.00;;
65328;SDS011;51941;52.210;5.158;2024-02-28T05:18:19;12.73;;;5.32;;
65328;SDS011;51941;52.210;5.158;2024-02-28T05:20:46;15.65;;;5.97;;
65328;SDS011;51941;52.210;5.158;2024-02-28T05:23:13;13.10;;;5.25;;
65328;SDS011;51941;52.210;5.158;2024-02-28T05:25:40;13.77;;;5.47;;
65328;SDS011;51941;52.210;5.158;2024-02-28T05:28:07;15.25;;;5.63;;
65328;SDS011;51941;52.210;5.158;2024-02-28T05:30:33;14.25;;;5.63;;
65328;SDS011;51941;52.210;5.158;2024-02-28T05:33:01;15.32;;;6.15;;
65328;SDS011;51941;52.210;5.158;2024-02-28T05:35:28;12.93;;;5.50;;
65328;SDS011;51941;52.210;5.158;2024-02-28T05:37:55;14.05;;;5.68;;
65328;SDS011;51941;52.210;5.158;2024-02-28T05:40:22;12.98;;;6.22;;
65328;SDS011;51941;52.210;5.158;2024-02-28T05:42:49;14.13;;;5.63;;
65328;SDS011;51941;52.210;5.158;2024-02-28T05:45:16;15.32;;;6.30;;
65328;SDS011;51941;52.210;5.158;2024-02-28T05:47:42;14.05;;;5.40;;
65328;SDS011;51941;52.210;5.158;2024-02-28T05:50:11;12.10;;;5.25;;
65328;SDS011;51941;52.210;5.158;2024-02-28T05:52:38;16.65;;;5.75;;
65328;SDS011;51941;52.210;5.158;2024-02-28T05:55:07;12.48;;;5.78;;
65328;SDS011;51941;52.210;5.158;2024-02-28T05:57:34;15.35;;;6.57;;
65328;SDS011;51941;52.210;5.158;2024-02-28T06:00:02;15.95;;;6.00;;
65328;SDS011;51941;52.210;5.158;2024-02-28T06:02:36;13.48;;;5.72;;
65328;SDS011;51941;52.210;5.158;2024-02-28T06:05:03;15.18;;;5.75;;
65328;SDS011;51941;52.210;5.158;2024-02-28T06:07:32;18.83;;;6.28;;
65328;SDS011;51941;52.210;5.158;2024-02-28T06:09:59;13.77;;;5.55;;
65328;SDS011;51941;52.210;5.158;2024-02-28T06:12:26;19.52;;;6.68;;
65328;SDS011;51941;52.210;5.158;2024-02-28T06:14:53;12.32;;;5.68;;
65328;SDS011;51941;52.210;5.158;2024-02-28T06:17:21;18.65;;;6.90;;
65328;SDS011;51941;52.210;5.158;2024-02-28T06:19:48;18.10;;;6.75;;
65328;SDS011;51941;52.210;5.158;2024-02-28T06:22:14;14.80;;;6.57;;
65328;SDS011;51941;52.210;5.158;2024-02-28T06:24:44;15.00;;;6.82;;
65328;SDS011;51941;52.210;5.158;2024-02-28T06:27:11;13.63;;;6.32;;
65328;SDS011;51941;52.210;5.158;2024-02-28T06:29:38;15.80;;;6.25;;
65328;SDS011;51941;52.210;5.158;2024-02-28T06:32:05;15.75;;;6.88;;
65328;SDS011;51941;52.210;5.158;2024-02-28T06:34:32;19.35;;;6.53;;
65328;SDS011;51941;52.210;5.158;2024-02-28T06:36:59;16.67;;;6.53;;
65328;SDS011;51941;52.210;5.158;2024-02-28T06:39:25;17.35;;;6.68;;
65328;SDS011;51941;52.210;5.158;2024-02-28T06:41:53;14.38;;;5.80;;
65328;SDS011;51941;52.210;5.158;2024-02-28T06:44:20;14.55;;;6.18;;
65328;SDS011;51941;52.210;5.158;2024-02-28T06:46:47;20.10;;;6.43;;
65328;SDS011;51941;52.210;5.158;2024-02-28T06:49:14;14.05;;;5.97;;
65328;SDS011;51941;52.210;5.158;2024-02-28T06:51:41;17.55;;;5.78;;
65328;SDS011;51941;52.210;5.158;2024-02-28T06:54:09;18.05;;;7.45;;
65328;SDS011;51941;52.210;5.158;2024-02-28T06:56:36;15.55;;;6.85;;
65328;SDS011;51941;52.210;5.158;2024-02-28T06:59:04;15.65;;;7.25;;
65328;SDS011;51941;52.210;5.158;2024-02-28T07:01:32;13.85;;;5.93;;
65328;SDS011;51941;52.210;5.158;2024-02-28T07:03:59;19.15;;;7.53;;
65328;SDS011;51941;52.210;5.158;2024-02-28T07:06:25;18.45;;;7.25;;
65328;SDS011;51941;52.210;5.158;2024-02-28T07:08:52;17.20;;;7.30;;
65328;SDS011;51941;52.210;5.158;2024-02-28T07:11:19;17.33;;;7.00;;
65328;SDS011;51941;52.210;5.158;2024-02-28T07:13:46;18.27;;;7.88;;
65328;SDS011;51941;52.210;5.158;2024-02-28T07:16:14;16.75;;;7.10;;
65328;SDS011;51941;52.210;5.158;2024-02-28T07:18:41;14.52;;;6.90;;
65328;SDS011;51941;52.210;5.158;2024-02-28T07:21:08;16.73;;;6.95;;
65328;SDS011;51941;52.210;5.158;2024-02-28T07:23:35;15.27;;;6.95;;
65328;SDS011;51941;52.210;5.158;2024-02-28T07:26:04;21.13;;;6.95;;
65328;SDS011;51941;52.210;5.158;2024-02-28T07:28:31;16.40;;;6.55;;
65328;SDS011;51941;52.210;5.158;2024-02-28T07:30:58;18.70;;;7.10;;
65328;SDS011;51941;52.210;5.158;2024-02-28T07:33:26;13.75;;;6.65;;
65328;SDS011;51941;52.210;5.158;2024-02-28T07:35:53;16.52;;;7.55;;
65328;SDS011;51941;52.210;5.158;2024-02-28T07:38:19;16.45;;;7.65;;
65328;SDS011;51941;52.210;5.158;2024-02-28T07:40:47;14.63;;;6.63;;
65328;SDS011;51941;52.210;5.158;2024-02-28T07:43:14;15.23;;;7.40;;
65328;SDS011;51941;52.210;5.158;2024-02-28T07:45:41;19.13;;;6.93;;
65328;SDS011;51941;52.210;5.158;2024-02-28T07:48:07;14.98;;;6.78;;
65328;SDS011;51941;52.210;5.158;2024-02-28T07:50:35;14.20;;;6.95;;
65328;SDS011;51941;52.210;5.158;2024-02-28T07:53:03;14.60;;;6.97;;
65328;SDS011;51941;52.210;5.158;2024-02-28T07:55:30;18.02;;;7.32;;
65328;SDS011;51941;52.210;5.158;2024-02-28T07:57:57;13.70;;;6.57;;
65328;SDS011;51941;52.210;5.158;2024-02-28T08:00:23;18.00;;;7.20;;
65328;SDS011;51941;52.210;5.158;2024-02-28T08:02:50;14.40;;;6.10;;
65328;SDS011;51941;52.210;5.158;2024-02-28T08:05:19;18.30;;;8.43;;
65328;SDS011;51941;52.210;5.158;2024-02-28T08:07:47;19.67;;;8.07;;
65328;SDS011;51941;52.210;5.158;2024-02-28T08:10:14;16.50;;;7.13;;
65328;SDS011;51941;52.210;5.158;2024-02-28T08:12:41;21.13;;;7.18;;
65328;SDS011;51941;52.210;5.158;2024-02-28T08:15:09;15.52;;;6.72;;
65328;SDS011;51941;52.210;5.158;2024-02-28T08:17:38;18.33;;;7.25;;
65328;SDS011;51941;52.210;5.158;2024-02-28T08:20:06;20.75;;;8.02;;
65328;SDS011;51941;52.210;5.158;2024-02-28T08:22:34;15.60;;;7.32;;
65328;SDS011;51941;52.210;5.158;2024-02-28T08:25:02;17.83;;;6.57;;
65328;SDS011;51941;52.210;5.158;2024-02-28T08:27:29;14.55;;;7.22;;
65328;SDS011;51941;52.210;5.158;2024-02-28T08:29:56;17.48;;;7.22;;
65328;SDS011;51941;52.210;5.158;2024-02-28T08:32:22;20.15;;;8.45;;
65328;SDS011;51941;52.210;5.158;2024-02-28T08:34:49;15.05;;;7.00;;
65328;SDS011;51941;52.210;5.158;2024-02-28T08:37:15;25.90;;;8.35;;
65328;SDS011;51941;52.210;5.158;2024-02-28T08:39:42;20.27;;;7.70;;
65328;SDS011;51941;52.210;5.158;2024-02-28T08:42:10;18.67;;;8.18;;
65328;SDS011;51941;52.210;5.158;2024-02-28T08:44:37;16.08;;;7.40;;
65328;SDS011;51941;52.210;5.158;2024-02-28T08:47:05;24.50;;;7.88;;
65328;SDS011;51941;52.210;5.158;2024-02-28T08:49:33;12.40;;;6.70;;
65328;SDS011;51941;52.210;5.158;2024-02-28T08:51:59;15.52;;;7.22;;
65328;SDS011;51941;52.210;5.158;2024-02-28T08:54:26;15.38;;;6.53;;
65328;SDS011;51941;52.210;5.158;2024-02-28T08:56:53;17.73;;;7.57;;
65328;SDS011;51941;52.210;5.158;2024-02-28T08:59:21;14.70;;;7.22;;
65328;SDS011;51941;52.210;5.158;2024-02-28T09:01:48;15.40;;;6.95;;
65328;SDS011;51941;52.210;5.158;2024-02-28T09:04:14;14.20;;;6.32;;
65328;SDS011;51941;52.210;5.158;2024-02-28T09:06:41;18.45;;;8.10;;
65328;SDS011;51941;52.210;5.158;2024-02-28T09:09:08;20.30;;;7.57;;
65328;SDS011;51941;52.210;5.158;2024-02-28T09:11:35;14.27;;;6.93;;
65328;SDS011;51941;52.210;5.158;2024-02-28T09:14:01;18.27;;;7.93;;
65328;SDS011;51941;52.210;5.158;2024-02-28T09:16:30;16.98;;;7.47;;
65328;SDS011;51941;52.210;5.158;2024-02-28T09:18:57;17.05;;;8.50;;
65328;SDS011;51941;52.210;5.158;2024-02-28T09:21:24;17.42;;;7.47;;
65328;SDS011;51941;52.210;5.158;2024-02-28T09:23:50;16.85;;;7.50;;
65328;SDS011;51941;52.210;5.158;2024-02-28T09:26:17;14.32;;;6.68;;
65328;SDS011;51941;52.210;5.158;2024-02-28T09:28:43;14.98;;;7.60;;
65328;SDS011;51941;52.210;5.158;2024-02-28T09:31:10;17.05;;;7.38;;
65328;SDS011;51941;52.210;5.158;2024-02-28T09:33:38;13.35;;;7.00;;
65328;SDS011;51941;52.210;5.158;2024-02-28T09:36:05;19.60;;;7.07;;
65328;SDS011;51941;52.210;5.158;2024-02-28T09:38:32;15.93;;;7.30;;
65328;SDS011;51941;52.210;5.158;2024-02-28T09:41:00;17.17;;;7.88;;
65328;SDS011;51941;52.210;5.158;2024-02-28T09:43:28;17.52;;;7.28;;
65328;SDS011;51941;52.210;5.158;2024-02-28T09:45:57;15.27;;;7.63;;
65328;SDS011;51941;52.210;5.158;2024-02-28T09:48:27;15.02;;;7.70;;
65328;SDS011;51941;52.210;5.158;2024-02-28T09:50:56;17.15;;;7.45;;
65328;SDS011;51941;52.210;5.158;2024-02-28T09:53:23;13.18;;;6.93;;
65328;SDS011;51941;52.210;5.158;2024-02-28T09:55:49;15.05;;;7.72;;
65328;SDS011;51941;52.210;5.158;2024-02-28T09:58:17;12.80;;;6.85;;
65328;SDS011;51941;52.210;5.158;2024-02-28T10:00:46;15.25;;;7.85;;
65328;SDS011;51941;52.210;5.158;2024-02-28T10:03:13;15.88;;;6.80;;
65328;SDS011;51941;52.210;5.158;2024-02-28T10:05:44;23.55;;;7.90;;
65328;SDS011;51941;52.210;5.158;2024-02-28T10:08:13;18.05;;;7.43;;
65328;SDS011;51941;52.210;5.158;2024-02-28T10:10:44;15.85;;;6.90;;
65328;SDS011;51941;52.210;5.158;2024-02-28T10:13:12;12.90;;;6.55;;
65328;SDS011;51941;52.210;5.158;2024-02-28T10:15:39;17.55;;;7.47;;
65328;SDS011;51941;52.210;5.158;2024-02-28T10:18:05;15.70;;;8.02;;
65328;SDS011;51941;52.210;5.158;2024-02-28T10:20:32;14.43;;;6.57;;
65328;SDS011;51941;52.210;5.158;2024-02-28T10:23:03;14.70;;;7.35;;
65328;SDS011;51941;52.210;5.158;2024-02-28T10:25:32;14.75;;;7.25;;
65328;SDS011;51941;52.210;5.158;2024-02-28T10:27:59;15.98;;;7.13;;
65328;SDS011;51941;52.210;5.158;2024-02-28T10:30:26;16.83;;;7.03;;
65328;SDS011;51941;52.210;5.158;2024-02-28T10:32:53;14.70;;;6.43;;
65328;SDS011;51941;52.210;5.158;2024-02-28T10:35:21;16.42;;;7.20;;
65328;SDS011;51941;52.210;5.158;2024-02-28T10:37:50;15.77;;;7.43;;
65328;SDS011;51941;52.210;5.158;2024-02-28T10:40:18;12.93;;;6.38;;
65328;SDS011;51941;52.210;5.158;2024-02-28T10:42:48;16.17;;;6.97;;
65328;SDS011;51941;52.210;5.158;2024-02-28T10:45:16;14.68;;;7.18;;
65328;SDS011;51941;52.210;5.158;2024-02-28T10:47:43;16.40;;;7.28;;
65328;SDS011;51941;52.210;5.158;2024-02-28T10:50:12;15.80;;;7.93;;
65328;SDS011;51941;52.210;5.158;2024-02-28T10:52:43;15.65;;;7.63;;
65328;SDS011;51941;52.210;5.158;2024-02-28T10:55:12;23.20;;;8.07;;
65328;SDS011;51941;52.210;5.158;2024-02-28T10:57:42;14.75;;;6.97;;
65328;SDS011;51941;52.210;5.158;2024-02-28T11:00:14;18.42;;;7.93;;
65328;SDS011;51941;52.210;5.158;2024-02-28T11:02:43;16.27;;;8.65;;
65328;SDS011;51941;52.210;5.158;2024-02-28T11:05:10;18.35;;;7.78;;
65328;SDS011;51941;52.210;5.158;2024-02-28T11:07:40;18.38;;;7.88;;
65328;SDS011;51941;52.210;5.158;2024-02-28T11:10:08;19.02;;;8.25;;
65328;SDS011;51941;52.210;5.158;2024-02-28T11:12:36;17.67;;;8.10;;
65328;SDS011;51941;52.210;5.158;2024-02-28T11:15:03;17.95;;;8.77;;
65328;SDS011;51941;52.210;5.158;2024-02-28T11:17:33;22.23;;;8.20;;
65328;SDS011;51941;52.210;5.158;2024-02-28T11:20:00;16.02;;;8.02;;
65328;SDS011;51941;52.210;5.158;2024-02-28T11:22:38;18.23;;;8.77;;
65328;SDS011;51941;52.210;5.158;2024-02-28T11:25:06;15.85;;;7.82;;
65328;SDS011;51941;52.210;5.158;2024-02-28T11:27:33;20.45;;;9.15;;
65328;SDS011;51941;52.210;5.158;2024-02-28T11:29:59;25.42;;;8.50;;
65328;SDS011;51941;52.210;5.158;2024-02-28T11:32:27;19.08;;;8.35;;
65328;SDS011;51941;52.210;5.158;2024-02-28T11:34:58;18.35;;;8.30;;
65328;SDS011;51941;52.210;5.158;2024-02-28T11:37:27;17.60;;;6.78;;
65328;SDS011;51941;52.210;5.158;2024-02-28T11:39:54;18.92;;;8.60;;
65328;SDS011;51941;52.210;5.158;2024-02-28T11:42:21;26.20;;;10.23;;
65328;SDS011;51941;52.210;5.158;2024-02-28T11:44:52;20.38;;;9.98;;
65328;SDS011;51941;52.210;5.158;2024-02-28T11:47:22;20.52;;;10.18;;
65328;SDS011;51941;52.210;5.158;2024-02-28T11:49:48;22.33;;;10.23;;
65328;SDS011;51941;52.210;5.158;2024-02-28T11:52:17;22.02;;;8.43;;
65328;SDS011;51941;52.210;5.158;2024-02-28T11:54:44;19.70;;;9.02;;
65328;SDS011;51941;52.210;5.158;2024-02-28T11:57:11;24.08;;;10.82;;
65328;SDS011;51941;52.210;5.158;2024-02-28T11:59:43;27.17;;;11.23;;
65328;SDS011;51941;52.210;5.158;2024-02-28T12:02:11;26.83;;;10.45;;
65328;SDS011;51941;52.210;5.158;2024-02-28T12:04:39;25.25;;;9.68;;
65328;SDS011;51941;52.210;5.158;2024-02-28T12:07:06;23.70;;;9.43;;
65328;SDS011;51941;52.210;5.158;2024-02-28T12:09:35;21.70;;;9.48;;
65328;SDS011;51941;52.210;5.158;2024-02-28T12:12:02;23.83;;;9.25;;
65328;SDS011;51941;52.210;5.158;2024-02-28T12:14:31;21.92;;;9.55;;
65328;SDS011;51941;52.210;5.158;2024-02-28T12:16:58;21.38;;;10.18;;
65328;SDS011;51941;52.210;5.158;2024-02-28T12:19:25;28.20;;;10.63;;
65328;SDS011;51941;52.210;5.158;2024-02-28T12:21:51;17.90;;;8.10;;
65328;SDS011;51941;52.210;5.158;2024-02-28T12:24:18;25.65;;;9.57;;
65328;SDS011;51941;52.210;5.158;2024-02-28T12:26:46;21.15;;;7.93;;
65328;SDS011;51941;52.210;5.158;2024-02-28T12:29:13;20.45;;;8.90;;
65328;SDS011;51941;52.210;5.158;2024-02-28T12:31:39;21.48;;;8.82;;
65328;SDS011;51941;52.210;5.158;2024-02-28T12:34:06;21.85;;;9.02;;
65328;SDS011;51941;52.210;5.158;2024-02-28T12:36:33;23.80;;;9.25;;
65328;SDS011;51941;52.210;5.158;2024-02-28T12:39:00;19.33;;;8.77;;
65328;SDS011;51941;52.210;5.158;2024-02-28T12:41:27;21.73;;;9.43;;
65328;SDS011;51941;52.210;5.158;2024-02-28T12:43:55;19.45;;;8.57;;
65328;SDS011;51941;52.210;5.158;2024-02-28T12:46:22;19.23;;;8.90;;
65328;SDS011;51941;52.210;5.158;2024-02-28T12:48:49;21.73;;;8.15;;
65328;SDS011;51941;52.210;5.158;2024-02-28T12:51:20;21.00;;;8.35;;
65328;SDS011;51941;52.210;5.158;2024-02-28T12:54:01;18.95;;;8.25;;
65328;SDS011;51941;52.210;5.158;2024-02-28T12:56:28;15.90;;;5.88;;
65328;SDS011;51941;52.210;5.158;2024-02-28T12:58:56;15.85;;;7.10;;
65328;SDS011;51941;52.210;5.158;2024-02-28T13:01:22;18.30;;;7.72;;
65328;SDS011;51941;52.210;5.158;2024-02-28T13:03:50;17.10;;;7.45;;
65328;SDS011;51941;52.210;5.158;2024-02-28T13:06:17;18.55;;;7.50;;
65328;SDS011;51941;52.210;5.158;2024-02-28T13:08:44;15.10;;;6.65;;
65328;SDS011;51941;52.210;5.158;2024-02-28T13:11:16;15.35;;;6.60;;
65328;SDS011;51941;52.210;5.158;2024-02-28T13:13:44;18.40;;;6.88;;
65328;SDS011;51941;52.210;5.158;2024-02-28T13:16:12;16.15;;;6.20;;
65328;SDS011;51941;52.210;5.158;2024-02-28T13:18:38;17.55;;;7.25;;
65328;SDS011;51941;52.210;5.158;2024-02-28T13:21:05;19.98;;;8.00;;
65328;SDS011;51941;52.210;5.158;2024-02-28T13:23:32;15.10;;;6.90;;
65328;SDS011;51941;52.210;5.158;2024-02-28T13:25:59;19.15;;;7.43;;
65328;SDS011;51941;52.210;5.158;2024-02-28T13:28:25;19.33;;;7.10;;
65328;SDS011;51941;52.210;5.158;2024-02-28T13:30:55;14.65;;;6.68;;
65328;SDS011;51941;52.210;5.158;2024-02-28T13:33:23;18.10;;;8.10;;
65328;SDS011;51941;52.210;5.158;2024-02-28T13:35:49;17.20;;;7.07;;
65328;SDS011;51941;52.210;5.158;2024-02-28T13:38:16;15.90;;;7.30;;
65328;SDS011;51941;52.210;5.158;2024-02-28T13:40:45;17.10;;;8.25;;
65328;SDS011;51941;52.210;5.158;2024-02-28T13:43:12;20.60;;;8.15;;
65328;SDS011;51941;52.210;5.158;2024-02-28T13:45:41;16.13;;;8.02;;
65328;SDS011;51941;52.210;5.158;2024-02-28T13:48:14;22.67;;;8.15;;
65328;SDS011;51941;52.210;5.158;2024-02-28T13:50:44;22.00;;;8.80;;
65328;SDS011;51941;52.210;5.158;2024-02-28T13:53:11;17.77;;;8.63;;
65328;SDS011;51941;52.210;5.158;2024-02-28T13:55:39;23.05;;;8.68;;
65328;SDS011;51941;52.210;5.158;2024-02-28T13:58:05;23.90;;;10.05;;
65328;SDS011;51941;52.210;5.158;2024-02-28T14:00:33;23.52;;;9.95;;
65328;SDS011;51941;52.210;5.158;2024-02-28T14:03:00;27.42;;;9.48;;
65328;SDS011;51941;52.210;5.158;2024-02-28T14:05:27;22.85;;;9.93;;
65328;SDS011;51941;52.210;5.158;2024-02-28T14:07:55;24.27;;;9.32;;
65328;SDS011;51941;52.210;5.158;2024-02-28T14:10:22;22.95;;;9.10;;
65328;SDS011;51941;52.210;5.158;2024-02-28T14:12:49;22.27;;;9.88;;
65328;SDS011;51941;52.210;5.158;2024-02-28T14:15:18;23.25;;;10.05;;
65328;SDS011;51941;52.210;5.158;2024-02-28T14:17:45;23.38;;;10.65;;
65328;SDS011;51941;52.210;5.158;2024-02-28T14:20:12;25.02;;;11.55;;
65328;SDS011;51941;52.210;5.158;2024-02-28T14:22:39;27.13;;;10.52;;
65328;SDS011;51941;52.210;5.158;2024-02-28T14:25:08;21.25;;;9.63;;
65328;SDS011;51941;52.210;5.158;2024-02-28T14:27:37;24.95;;;10.25;;
65328;SDS011;51941;52.210;5.158;2024-02-28T14:30:04;26.35;;;9.50;;
65328;SDS011;51941;52.210;5.158;2024-02-28T14:32:34;21.75;;;9.13;;
65328;SDS011;51941;52.210;5.158;2024-02-28T14:35:01;26.30;;;9.98;;